createdAt,value
2018-10-02T00:01:35.023Z,1.00
2018-10-02T00:04:03.602Z,1.00
2018-10-02T00:06:32.042Z,1.00
2018-10-02T00:09:00.468Z,1.00
2018-10-02T00:11:34.330Z,1.00
2018-10-02T00:14:08.162Z,18.30
2018-10-02T00:16:36.599Z,8.40
2018-10-02T00:19:05.065Z,12.80
2018-10-02T00:21:33.492Z,9.10
2018-10-02T00:24:01.931Z,19.10
2018-10-02T00:26:30.367Z,15.10
2018-10-02T00:28:58.807Z,15.30
2018-10-02T00:31:27.290Z,17.40
2018-10-02T00:33:55.708Z,28.40
2018-10-02T00:36:24.161Z,33.70
2018-10-02T00:38:52.655Z,35.10
2018-10-02T00:41:21.531Z,33.90
2018-10-02T00:43:50.316Z,29.70
2018-10-02T00:46:18.812Z,30.20
2018-10-02T00:48:47.260Z,30.60
2018-10-02T00:51:15.703Z,31.90
2018-10-02T00:53:44.147Z,32.60
2018-10-02T00:56:12.899Z,32.80
2018-10-02T00:58:41.367Z,31.20
2018-10-02T01:01:09.845Z,39.70
2018-10-02T01:03:38.322Z,49.90
2018-10-02T01:06:06.985Z,60.50
2018-10-02T01:08:35.453Z,70.80
2018-10-02T01:11:03.971Z,74.50
2018-10-02T01:13:32.489Z,90.00
2018-10-02T01:16:00.995Z,90.30
2018-10-02T01:18:29.429Z,92.80
2018-10-02T01:20:57.874Z,94.40
2018-10-02T01:23:26.335Z,98.50
2018-10-02T01:25:54.812Z,99.90
2018-10-02T01:28:23.374Z,99.90
2018-10-02T01:30:51.838Z,99.90
2018-10-02T01:33:20.345Z,99.90
2018-10-02T01:35:48.834Z,99.90
2018-10-02T01:38:17.283Z,99.90
2018-10-02T01:40:45.767Z,99.90
2018-10-02T01:43:14.274Z,99.90
2018-10-02T01:45:42.765Z,99.90
2018-10-02T01:48:11.275Z,99.90
2018-10-02T01:50:39.782Z,99.90
2018-10-02T01:53:08.263Z,99.90
2018-10-02T01:55:36.818Z,99.90
2018-10-02T01:58:05.346Z,99.90
2018-10-02T02:00:33.851Z,99.90
2018-10-02T02:03:02.336Z,99.90
2018-10-02T02:05:30.833Z,99.90
2018-10-02T02:07:59.264Z,99.90
2018-10-02T02:10:27.743Z,99.90
2018-10-02T02:12:56.234Z,99.90
2018-10-02T02:15:24.690Z,99.90
2018-10-02T02:17:53.133Z,99.90
2018-10-02T02:20:21.563Z,99.90
2018-10-02T02:22:50.062Z,99.90
2018-10-02T02:25:18.517Z,99.90
2018-10-02T02:27:46.985Z,99.90
2018-10-02T02:30:15.466Z,99.90
2018-10-02T02:32:43.995Z,99.90
2018-10-02T02:35:12.478Z,99.90
2018-10-02T02:37:40.987Z,99.40
2018-10-02T02:40:09.491Z,98.50
2018-10-02T02:42:37.983Z,99.90
2018-10-02T02:45:06.574Z,98.50
2018-10-02T02:47:40.328Z,99.90
2018-10-02T02:50:14.148Z,99.90
2018-10-02T02:52:44.865Z,99.90
2018-10-02T02:55:13.555Z,99.90
2018-10-02T02:57:42.330Z,99.90
2018-10-02T03:00:10.874Z,99.90
2018-10-02T03:02:39.371Z,99.90
2018-10-02T03:05:07.810Z,99.90
2018-10-02T03:07:36.250Z,99.90
2018-10-02T03:10:04.743Z,99.90
2018-10-02T03:12:33.252Z,99.90
2018-10-02T03:15:03.836Z,99.90
2018-10-02T03:17:32.302Z,99.90
2018-10-02T03:20:00.779Z,99.90
2018-10-02T03:22:29.287Z,99.90
2018-10-02T03:24:57.747Z,99.90
2018-10-02T03:27:26.247Z,99.90
2018-10-02T03:29:54.820Z,99.90
2018-10-02T03:32:23.298Z,99.90
2018-10-02T03:34:51.799Z,99.90
2018-10-02T03:37:20.291Z,99.90
2018-10-02T03:39:48.809Z,99.90
2018-10-02T03:42:17.289Z,99.90
2018-10-02T03:44:45.762Z,99.90
2018-10-02T03:47:14.293Z,99.90
2018-10-02T03:49:43.081Z,99.90
2018-10-02T03:52:11.587Z,99.90
2018-10-02T03:54:40.130Z,99.90
2018-10-02T03:57:08.590Z,99.90
2018-10-02T03:59:37.058Z,99.90
2018-10-02T04:02:05.519Z,99.90
2018-10-02T04:04:33.968Z,99.90
2018-10-02T04:07:02.443Z,99.90
2018-10-02T04:09:30.893Z,99.90
2018-10-02T04:11:59.385Z,99.90
2018-10-02T04:14:27.823Z,99.90
2018-10-02T04:16:56.343Z,99.90
2018-10-02T04:19:24.815Z,99.90
2018-10-02T04:21:53.267Z,99.90
2018-10-02T04:24:21.750Z,99.90
2018-10-02T04:26:50.261Z,99.90
2018-10-02T04:29:18.711Z,99.90
2018-10-02T04:31:47.220Z,99.90
2018-10-02T04:34:15.793Z,99.90
2018-10-02T04:36:44.673Z,99.90
2018-10-02T04:39:13.150Z,99.90
2018-10-02T04:41:41.638Z,99.90
2018-10-02T04:44:10.105Z,99.90
2018-10-02T04:46:38.614Z,99.90
2018-10-02T04:49:07.095Z,99.90
2018-10-02T04:51:35.619Z,99.90
2018-10-02T04:54:04.115Z,99.90
2018-10-02T04:56:32.577Z,99.90
2018-10-02T04:59:01.053Z,99.90
2018-10-02T05:01:29.498Z,99.90
2018-10-02T05:03:57.955Z,99.90
2018-10-02T05:06:26.568Z,99.90
2018-10-02T05:08:55.210Z,99.90
2018-10-02T05:11:23.751Z,99.90
2018-10-02T05:13:52.234Z,99.90
2018-10-02T05:16:20.716Z,99.90
2018-10-02T05:18:49.250Z,99.90
2018-10-02T05:21:17.761Z,99.90
2018-10-02T05:23:46.241Z,99.90
2018-10-02T05:26:14.758Z,99.90
2018-10-02T05:28:43.187Z,99.90
2018-10-02T05:31:11.650Z,99.90
2018-10-02T05:33:40.162Z,99.90
2018-10-02T05:36:08.659Z,99.90
2018-10-02T05:38:37.138Z,99.90
2018-10-02T05:41:05.686Z,99.90
2018-10-02T05:43:34.177Z,99.90
2018-10-02T05:46:02.697Z,99.90
2018-10-02T05:48:31.159Z,99.90
2018-10-02T05:50:59.709Z,99.90
2018-10-02T05:53:28.203Z,99.90
2018-10-02T05:55:56.663Z,99.90
2018-10-02T05:58:25.151Z,99.90
2018-10-02T06:00:53.917Z,99.90
2018-10-02T06:03:22.403Z,99.90
2018-10-02T06:05:50.906Z,99.90
2018-10-02T06:08:19.391Z,99.90
2018-10-02T06:10:47.895Z,99.90
2018-10-02T06:13:16.386Z,99.90
2018-10-02T06:15:44.908Z,99.90
2018-10-02T06:18:13.442Z,99.90
2018-10-02T06:20:41.911Z,98.40
2018-10-02T06:23:10.411Z,92.90
2018-10-02T06:25:38.878Z,59.90
2018-10-02T06:28:07.413Z,34.40
2018-10-02T06:30:37.642Z,28.60
2018-10-02T06:33:06.215Z,1.00
2018-10-02T06:35:34.702Z,1.00
2018-10-02T06:38:03.245Z,1.00
2018-10-02T06:40:31.703Z,1.00
2018-10-02T06:43:00.242Z,1.00
2018-10-02T06:45:28.743Z,1.00
2018-10-02T06:47:57.272Z,1.00
2018-10-02T06:50:25.849Z,1.00
2018-10-02T06:52:54.283Z,1.00
2018-10-02T06:55:22.836Z,1.00
2018-10-02T06:57:51.364Z,1.00
2018-10-02T07:00:19.868Z,8.10
2018-10-02T07:02:48.365Z,4.30
2018-10-02T07:05:16.813Z,1.00
2018-10-02T07:07:45.276Z,1.00
2018-10-02T07:10:13.728Z,1.00
2018-10-02T07:12:42.254Z,1.00
2018-10-02T07:15:10.739Z,1.00
2018-10-02T07:17:39.237Z,1.00
2018-10-02T07:20:07.826Z,1.00
2018-10-02T07:22:36.307Z,1.00
2018-10-02T07:25:04.930Z,1.00
2018-10-02T07:27:33.527Z,1.00
2018-10-02T07:30:01.966Z,1.00
2018-10-02T07:32:30.650Z,1.00
2018-10-02T07:34:59.059Z,1.00
2018-10-02T07:37:27.550Z,99.90
2018-10-02T07:39:56.031Z,99.90
2018-10-02T07:42:24.510Z,1.00
2018-10-02T07:44:53.114Z,1.00
2018-10-02T07:47:21.604Z,19.00
2018-10-02T07:49:49.979Z,1.00
2018-10-02T07:52:18.505Z,1.00
2018-10-02T07:54:46.953Z,99.90
2018-10-02T07:57:15.472Z,1.00
2018-10-02T07:59:44.009Z,1.00
2018-10-02T08:02:12.378Z,1.00
2018-10-02T08:04:40.881Z,1.00
2018-10-02T08:07:09.337Z,1.00
2018-10-02T08:09:37.778Z,1.00
2018-10-02T08:12:07.046Z,1.00
2018-10-02T08:14:35.443Z,99.90
2018-10-02T08:17:03.867Z,99.90
2018-10-02T08:19:32.410Z,1.00
2018-10-02T08:22:00.870Z,99.90
2018-10-02T08:24:29.334Z,76.70
2018-10-02T08:26:57.855Z,99.90
2018-10-02T08:29:26.275Z,99.90
2018-10-02T08:31:54.827Z,1.00
2018-10-02T08:34:23.389Z,99.90
2018-10-02T08:36:51.867Z,1.00
2018-10-02T08:39:20.309Z,22.20
2018-10-02T08:41:48.819Z,1.00
2018-10-02T08:44:17.233Z,1.00
2018-10-02T08:46:45.714Z,1.00
2018-10-02T08:49:14.255Z,99.90
2018-10-02T08:51:42.790Z,25.10
2018-10-02T08:54:11.200Z,1.00
2018-10-02T08:56:39.665Z,99.90
2018-10-02T08:59:08.264Z,99.90
2018-10-02T09:01:36.900Z,99.90
2018-10-02T09:04:05.514Z,99.90
2018-10-02T09:06:33.979Z,99.90
2018-10-02T09:09:02.522Z,99.90
2018-10-02T09:11:31.067Z,1.00
2018-10-02T09:13:59.526Z,99.90
2018-10-02T09:16:28.010Z,99.90
2018-10-02T09:18:56.517Z,99.90
2018-10-02T09:21:25.025Z,99.90
2018-10-02T09:23:53.551Z,99.90
2018-10-02T09:26:22.372Z,58.70
2018-10-02T09:28:51.092Z,1.00
2018-10-02T09:31:25.425Z,1.00
2018-10-02T09:33:59.609Z,1.00
2018-10-02T09:36:33.840Z,99.90
2018-10-02T09:39:08.103Z,99.90
2018-10-02T09:41:42.181Z,99.90
2018-10-02T09:44:11.090Z,99.90
2018-10-02T09:46:40.165Z,99.90
2018-10-02T09:49:09.153Z,99.90
2018-10-02T09:51:38.231Z,99.90
2018-10-02T09:54:07.400Z,99.90
2018-10-02T09:56:43.053Z,99.90
2018-10-02T09:59:13.239Z,99.90
2018-10-02T10:01:47.388Z,99.90
2018-10-02T10:04:16.603Z,99.90
2018-10-02T10:06:45.584Z,99.90
2018-10-02T10:09:14.564Z,99.90
2018-10-02T10:11:43.770Z,99.90
2018-10-02T10:14:12.762Z,99.90
2018-10-02T10:16:41.695Z,99.90
2018-10-02T10:19:10.534Z,99.90
2018-10-02T10:21:39.426Z,99.90
2018-10-02T10:24:08.525Z,99.90
2018-10-02T10:26:37.455Z,99.90
2018-10-02T10:29:06.562Z,99.90
2018-10-02T10:31:35.756Z,99.90
2018-10-02T10:34:04.707Z,99.90
2018-10-02T10:36:33.732Z,99.90
2018-10-02T10:39:02.677Z,99.90
2018-10-02T10:41:31.780Z,99.90
2018-10-02T10:44:01.021Z,99.90
2018-10-02T10:46:30.094Z,99.90
2018-10-02T10:48:59.011Z,99.90
2018-10-02T10:51:28.087Z,99.90
2018-10-02T10:53:57.100Z,99.90
2018-10-02T10:56:25.985Z,99.90
2018-10-02T10:58:54.930Z,99.90
2018-10-02T11:01:24.000Z,99.90
2018-10-02T11:03:52.740Z,99.90
2018-10-02T11:06:21.633Z,99.90
2018-10-02T11:08:50.589Z,99.90
2018-10-02T11:11:19.565Z,99.90
2018-10-02T11:13:48.594Z,99.90
2018-10-02T11:16:17.512Z,99.90
2018-10-02T11:18:46.422Z,99.90
2018-10-02T11:21:15.491Z,99.90
2018-10-02T11:23:44.496Z,99.90
2018-10-02T11:26:13.505Z,99.90
2018-10-02T11:28:42.379Z,99.90
2018-10-02T11:31:11.366Z,99.90
2018-10-02T11:33:40.262Z,99.90
2018-10-02T11:36:09.131Z,99.90
2018-10-02T11:38:38.009Z,99.90
2018-10-02T11:41:07.048Z,99.90
2018-10-02T11:43:35.839Z,99.90
2018-10-02T11:46:04.951Z,99.90
2018-10-02T11:48:34.061Z,99.90
2018-10-02T11:51:03.190Z,99.90
2018-10-02T11:53:32.116Z,99.90
2018-10-02T11:56:01.260Z,99.90
2018-10-02T11:58:30.324Z,99.90
2018-10-02T12:00:59.448Z,99.90
2018-10-02T12:03:28.336Z,99.90
2018-10-02T12:05:57.234Z,99.90
2018-10-02T12:08:26.210Z,99.90
2018-10-02T12:10:55.091Z,99.90
2018-10-02T12:13:24.285Z,99.90
2018-10-02T12:15:53.060Z,99.90
2018-10-02T12:18:21.941Z,99.90
2018-10-02T12:20:50.791Z,99.90
2018-10-02T12:23:19.745Z,99.90
2018-10-02T12:25:48.710Z,99.90
2018-10-02T12:28:17.676Z,99.90
2018-10-02T12:30:46.529Z,99.90
2018-10-02T12:33:15.322Z,99.90
2018-10-02T12:35:44.114Z,99.90
2018-10-02T12:38:13.511Z,99.90
2018-10-02T12:40:42.519Z,99.90
2018-10-02T12:43:11.494Z,99.90
2018-10-02T12:45:40.469Z,99.90
2018-10-02T12:48:09.443Z,99.90
2018-10-02T12:50:38.552Z,99.90
2018-10-02T12:53:07.591Z,99.90
2018-10-02T12:55:36.552Z,99.90
2018-10-02T12:58:05.507Z,99.90
2018-10-02T13:00:34.405Z,99.90
2018-10-02T13:03:03.300Z,99.90
2018-10-02T13:05:32.150Z,99.90
2018-10-02T13:08:01.108Z,99.90
2018-10-02T13:10:30.072Z,99.90
2018-10-02T13:12:59.015Z,99.90
2018-10-02T13:15:27.907Z,99.90
2018-10-02T13:17:56.900Z,99.90
2018-10-02T13:20:25.803Z,99.90
2018-10-02T13:22:54.578Z,99.90
2018-10-02T13:25:23.327Z,99.90
2018-10-02T13:27:52.168Z,99.90
2018-10-02T13:30:21.076Z,99.90
2018-10-02T13:32:49.625Z,99.90
2018-10-02T13:35:18.153Z,99.90
2018-10-02T13:37:46.815Z,99.90
2018-10-02T13:40:15.671Z,99.90
2018-10-02T13:42:44.562Z,99.90
2018-10-02T13:45:13.594Z,99.90
2018-10-02T13:47:42.546Z,99.90
2018-10-02T13:50:11.409Z,99.90
2018-10-02T13:52:40.289Z,99.90
2018-10-02T13:55:09.274Z,1.00
2018-10-02T13:57:38.181Z,99.90
2018-10-02T14:00:07.401Z,1.00
2018-10-02T14:02:36.819Z,99.90
2018-10-02T14:05:05.887Z,1.00
2018-10-02T14:07:34.705Z,1.00
2018-10-02T14:10:03.239Z,1.00
2018-10-02T14:12:31.776Z,1.00
2018-10-02T14:15:00.435Z,1.00
2018-10-02T14:17:28.885Z,1.00
2018-10-02T14:19:57.806Z,1.00
2018-10-02T14:22:26.698Z,1.00
2018-10-02T14:24:55.615Z,1.00
2018-10-02T14:27:24.545Z,1.00
2018-10-02T14:29:54.272Z,1.00
2018-10-02T14:32:23.170Z,1.00
2018-10-02T14:34:51.995Z,1.00
2018-10-02T14:37:20.831Z,1.00
2018-10-02T14:39:49.722Z,1.00
2018-10-02T14:42:18.611Z,1.00
2018-10-02T14:44:47.456Z,1.00
2018-10-02T14:47:16.333Z,1.00
2018-10-02T14:49:45.274Z,1.00
2018-10-02T14:52:14.229Z,99.90
2018-10-02T14:54:44.080Z,99.90
2018-10-02T14:57:13.049Z,99.90
2018-10-02T14:59:41.857Z,99.90
2018-10-02T15:02:10.749Z,99.90
2018-10-02T15:04:39.740Z,9.30
2018-10-02T15:07:08.626Z,1.00
2018-10-02T15:09:37.557Z,1.00
2018-10-02T15:12:06.553Z,99.90
2018-10-02T15:14:35.715Z,99.90
2018-10-02T15:17:04.643Z,1.00
2018-10-02T15:19:33.623Z,99.90
2018-10-02T15:22:02.637Z,1.00
2018-10-02T15:24:31.485Z,99.90
2018-10-02T15:27:00.466Z,99.90
2018-10-02T15:29:29.350Z,99.90
2018-10-02T15:31:58.285Z,1.00
2018-10-02T15:34:27.208Z,99.90
2018-10-02T15:36:56.057Z,99.90
2018-10-02T15:39:24.944Z,99.90
2018-10-02T15:41:53.834Z,99.90
2018-10-02T15:44:22.730Z,99.90
2018-10-02T15:46:51.647Z,1.00
2018-10-02T15:49:20.546Z,1.00
2018-10-02T15:51:49.500Z,1.00
2018-10-02T15:54:18.377Z,99.90
2018-10-02T15:56:47.337Z,1.00
2018-10-02T15:59:16.162Z,1.00
2018-10-02T16:01:44.718Z,99.90
2018-10-02T16:04:13.248Z,1.00
2018-10-02T16:06:41.856Z,46.60
2018-10-02T16:09:10.344Z,27.00
2018-10-02T16:11:38.941Z,98.70
2018-10-02T16:14:07.828Z,99.90
2018-10-02T16:16:36.442Z,99.90
2018-10-02T16:19:05.238Z,99.90
2018-10-02T16:21:33.878Z,99.90
2018-10-02T16:24:02.391Z,1.00
2018-10-02T16:26:30.931Z,99.90
2018-10-02T16:29:00.671Z,1.00
2018-10-02T16:31:29.134Z,99.90
2018-10-02T16:33:57.928Z,99.90
2018-10-02T16:36:27.095Z,99.90
2018-10-02T16:38:55.966Z,1.00
2018-10-02T16:41:24.908Z,1.00
2018-10-02T16:43:53.772Z,96.10
2018-10-02T16:46:22.319Z,1.00
2018-10-02T16:48:50.791Z,1.00
2018-10-02T16:51:19.266Z,99.90
2018-10-02T16:53:47.736Z,1.00
2018-10-02T16:56:16.490Z,39.80
2018-10-02T16:58:44.996Z,1.00
2018-10-02T17:01:13.515Z,1.00
2018-10-02T17:03:42.075Z,99.90
2018-10-02T17:06:10.563Z,40.30
2018-10-02T17:08:39.092Z,41.90
2018-10-02T17:11:07.632Z,99.90
2018-10-02T17:13:36.144Z,19.40
2018-10-02T17:16:04.636Z,99.90
2018-10-02T17:18:33.152Z,99.90
2018-10-02T17:21:01.695Z,99.90
2018-10-02T17:23:30.190Z,99.90
2018-10-02T17:25:58.673Z,1.00
2018-10-02T17:28:27.178Z,99.90
2018-10-02T17:30:55.643Z,20.40
2018-10-02T17:33:24.155Z,95.40
2018-10-02T17:35:52.989Z,99.90
2018-10-02T17:38:21.833Z,99.90
2018-10-02T17:40:50.329Z,1.00
2018-10-02T17:43:18.819Z,99.90
2018-10-02T17:45:47.316Z,37.20
2018-10-02T17:48:15.831Z,99.90
2018-10-02T17:50:44.529Z,99.90
2018-10-02T17:53:13.090Z,99.90
2018-10-02T17:55:41.604Z,99.90
2018-10-02T17:58:10.310Z,99.90
2018-10-02T18:00:38.841Z,99.90
2018-10-02T18:03:07.537Z,99.90
2018-10-02T18:05:36.342Z,99.90
2018-10-02T18:08:05.188Z,99.90
2018-10-02T18:10:34.196Z,99.90
2018-10-02T18:13:03.235Z,99.90
2018-10-02T18:15:32.166Z,1.00
2018-10-02T18:18:01.108Z,1.00
2018-10-02T18:20:29.948Z,1.00
2018-10-02T18:22:58.733Z,1.00
2018-10-02T18:25:27.628Z,1.00
2018-10-02T18:27:56.571Z,1.00
2018-10-02T18:30:25.453Z,1.00
2018-10-02T18:32:54.272Z,1.00
2018-10-02T18:35:23.125Z,1.00
2018-10-02T18:37:52.003Z,1.00
2018-10-02T18:40:20.809Z,1.00
2018-10-02T18:42:49.756Z,1.00
2018-10-02T18:45:18.549Z,1.00
2018-10-02T18:47:47.848Z,1.00
2018-10-02T18:50:16.707Z,1.00
2018-10-02T18:52:45.648Z,1.00
2018-10-02T18:55:14.502Z,1.00
2018-10-02T18:57:43.415Z,1.00
2018-10-02T19:00:12.208Z,1.00
2018-10-02T19:02:41.038Z,1.00
2018-10-02T19:05:09.999Z,1.00
2018-10-02T19:07:38.924Z,1.00
2018-10-02T19:10:07.950Z,1.00
2018-10-02T19:12:36.457Z,1.00
2018-10-02T19:15:05.673Z,1.00
2018-10-02T19:17:34.648Z,1.00
2018-10-02T19:20:08.767Z,1.00
2018-10-02T19:22:37.869Z,1.00
2018-10-02T19:25:11.913Z,1.00
2018-10-02T19:27:41.032Z,1.00
2018-10-02T19:31:18.969Z,1.00
2018-10-02T19:33:48.222Z,1.00
2018-10-02T19:36:17.219Z,1.00
2018-10-02T19:38:51.435Z,1.00
2018-10-02T19:41:20.388Z,1.00
2018-10-02T19:43:49.671Z,1.00
2018-10-02T19:46:25.321Z,1.00
2018-10-02T19:48:54.428Z,1.00
2018-10-02T19:51:29.416Z,1.00
2018-10-02T19:53:58.714Z,1.00
2018-10-02T19:56:27.658Z,1.00
2018-10-02T19:58:56.600Z,1.00
2018-10-02T20:01:25.494Z,1.00
2018-10-02T20:03:54.458Z,1.00
2018-10-02T20:06:23.503Z,5.90
2018-10-02T20:08:52.373Z,3.30
2018-10-02T20:11:21.333Z,4.30
2018-10-02T20:13:50.530Z,3.00
2018-10-02T20:16:19.405Z,1.00
2018-10-02T20:18:48.198Z,1.00
2018-10-02T20:21:17.298Z,1.00
2018-10-02T20:23:46.127Z,1.00
2018-10-02T20:26:14.982Z,1.00
2018-10-02T20:28:43.919Z,6.10
2018-10-02T20:31:12.935Z,1.00
2018-10-02T20:33:41.830Z,1.00
2018-10-02T20:36:10.805Z,1.00
2018-10-02T20:38:39.723Z,1.00
2018-10-02T20:41:08.621Z,1.00
2018-10-02T20:43:37.450Z,1.00
2018-10-02T20:46:06.597Z,6.00
2018-10-02T20:48:35.521Z,1.00
2018-10-02T20:51:04.351Z,9.30
2018-10-02T20:53:33.277Z,1.00
2018-10-02T20:56:02.083Z,1.00
2018-10-02T20:58:30.946Z,1.00
2018-10-02T21:00:59.924Z,1.00
2018-10-02T21:03:28.439Z,1.00
2018-10-02T21:05:57.363Z,1.00
2018-10-02T21:08:26.209Z,1.00
2018-10-02T21:10:55.004Z,1.00
2018-10-02T21:13:23.974Z,1.00
2018-10-02T21:15:52.959Z,1.00
2018-10-02T21:18:22.737Z,1.00
2018-10-02T21:20:51.523Z,1.00
2018-10-02T21:23:20.436Z,1.00
2018-10-02T21:25:49.333Z,1.00
2018-10-02T21:28:17.782Z,1.00
2018-10-02T21:30:46.231Z,1.00
2018-10-02T21:33:14.798Z,1.00
2018-10-02T21:35:43.250Z,1.00
2018-10-02T21:38:11.698Z,1.00
2018-10-02T21:40:40.317Z,1.00
2018-10-02T21:43:08.974Z,1.00
2018-10-02T21:45:37.512Z,1.00
2018-10-02T21:48:06.215Z,1.00
2018-10-02T21:50:34.750Z,1.00
2018-10-02T21:53:03.318Z,1.00
2018-10-02T21:55:31.914Z,1.00
2018-10-02T21:58:00.393Z,1.00
2018-10-02T22:00:30.652Z,1.00
2018-10-02T22:02:59.099Z,1.00
2018-10-02T22:05:27.540Z,1.00
2018-10-02T22:07:56.134Z,1.00
2018-10-02T22:10:24.638Z,1.00
2018-10-02T22:12:53.242Z,1.00
2018-10-02T22:15:21.731Z,1.00
2018-10-02T22:17:50.234Z,1.00
2018-10-02T22:20:18.690Z,1.00
2018-10-02T22:22:47.134Z,1.00
2018-10-02T22:25:15.578Z,1.00
2018-10-02T22:27:44.106Z,1.00
2018-10-02T22:30:13.618Z,1.00
2018-10-02T22:32:42.529Z,1.00
2018-10-02T22:35:11.025Z,1.00
2018-10-02T22:37:39.459Z,1.00
2018-10-02T22:40:08.240Z,1.00
2018-10-02T22:42:36.686Z,1.00
2018-10-02T22:45:05.252Z,1.00
2018-10-02T22:47:33.687Z,1.00
2018-10-02T22:50:02.148Z,1.00
2018-10-02T22:52:30.779Z,1.00
2018-10-02T22:54:59.186Z,1.00
2018-10-02T22:57:27.668Z,1.00
2018-10-02T22:59:56.235Z,1.00
2018-10-02T23:02:24.738Z,1.00
2018-10-02T23:04:53.168Z,1.00
2018-10-02T23:07:25.282Z,1.00
2018-10-02T23:09:53.863Z,1.00
2018-10-02T23:12:22.355Z,1.00
2018-10-02T23:14:50.822Z,1.00
2018-10-02T23:17:19.286Z,1.00
2018-10-02T23:19:47.737Z,1.00
2018-10-02T23:22:16.186Z,1.00
2018-10-02T23:24:44.648Z,1.00
2018-10-02T23:27:13.076Z,1.00
2018-10-02T23:29:41.531Z,99.90
2018-10-02T23:32:10.162Z,99.90
2018-10-02T23:34:39.217Z,99.90
2018-10-02T23:37:07.685Z,99.90
2018-10-02T23:39:36.083Z,99.90
2018-10-02T23:42:04.530Z,99.90
2018-10-02T23:44:33.078Z,99.90
2018-10-02T23:47:01.615Z,99.90
2018-10-02T23:49:30.064Z,99.90
2018-10-02T23:51:58.526Z,99.90
2018-10-02T23:54:26.972Z,99.90
2018-10-02T23:56:55.421Z,99.90
2018-10-02T23:59:23.857Z,99.90
